sensor_id;sensor_type;location;lat;lon;timestamp;P1;durP1;ratioP1;P2;durP2;ratioP2
28653;SDS011;24320;56.980;24.336;2022-10-16T00:01:29;18.48;;;10.20;;
28653;SDS011;24320;56.980;24.336;2022-10-16T00:03:57;17.73;;;9.95;;
28653;SDS011;24320;56.980;24.336;2022-10-16T00:06:26;17.27;;;9.77;;
28653;SDS011;24320;56.980;24.336;2022-10-16T00:08:55;17.45;;;9.85;;
28653;SDS011;24320;56.980;24.336;2022-10-16T00:11:24;18.20;;;9.68;;
28653;SDS011;24320;56.980;24.336;2022-10-16T00:13:55;16.98;;;9.90;;
28653;SDS011;24320;56.980;24.336;2022-10-16T00:16:23;16.13;;;9.75;;
28653;SDS011;24320;56.980;24.336;2022-10-16T00:18:50;17.52;;;10.30;;
28653;SDS011;24320;56.980;24.336;2022-10-16T00:21:19;17.92;;;9.55;;
28653;SDS011;24320;56.980;24.336;2022-10-16T00:23:51;16.90;;;10.02;;
28653;SDS011;24320;56.980;24.336;2022-10-16T00:26:20;16.48;;;9.18;;
28653;SDS011;24320;56.980;24.336;2022-10-16T00:28:48;17.30;;;9.20;;
28653;SDS011;24320;56.980;24.336;2022-10-16T00:31:16;21.88;;;10.50;;
28653;SDS011;24320;56.980;24.336;2022-10-16T00:33:45;17.27;;;9.88;;
28653;SDS011;24320;56.980;24.336;2022-10-16T00:36:13;20.83;;;9.35;;
28653;SDS011;24320;56.980;24.336;2022-10-16T00:38:42;17.83;;;9.98;;
28653;SDS011;24320;56.980;24.336;2022-10-16T00:41:14;21.23;;;10.20;;
28653;SDS011;24320;56.980;24.336;2022-10-16T00:43:43;19.75;;;9.82;;
28653;SDS011;24320;56.980;24.336;2022-10-16T00:46:18;20.90;;;10.18;;
28653;SDS011;24320;56.980;24.336;2022-10-16T00:49:01;19.40;;;9.55;;
28653;SDS011;24320;56.980;24.336;2022-10-16T00:51:37;16.73;;;9.98;;
28653;SDS011;24320;56.980;24.336;2022-10-16T00:54:08;19.60;;;9.77;;
28653;SDS011;24320;56.980;24.336;2022-10-16T00:56:44;17.65;;;9.48;;
28653;SDS011;24320;56.980;24.336;2022-10-16T00:59:16;19.88;;;10.23;;
28653;SDS011;24320;56.980;24.336;2022-10-16T01:01:51;17.98;;;9.35;;
28653;SDS011;24320;56.980;24.336;2022-10-16T01:04:18;21.90;;;10.13;;
28653;SDS011;24320;56.980;24.336;2022-10-16T01:14:55;22.10;;;10.52;;
28653;SDS011;24320;56.980;24.336;2022-10-16T01:22:43;18.65;;;9.50;;
28653;SDS011;24320;56.980;24.336;2022-10-16T01:25:31;18.45;;;9.88;;
28653;SDS011;24320;56.980;24.336;2022-10-16T01:28:18;20.38;;;9.38;;
28653;SDS011;24320;56.980;24.336;2022-10-16T01:30:52;18.30;;;9.93;;
28653;SDS011;24320;56.980;24.336;2022-10-16T01:33:32;21.88;;;11.35;;
28653;SDS011;24320;56.980;24.336;2022-10-16T01:36:15;18.98;;;10.30;;
28653;SDS011;24320;56.980;24.336;2022-10-16T01:38:49;21.73;;;10.55;;
28653;SDS011;24320;56.980;24.336;2022-10-16T01:41:44;16.88;;;10.20;;
28653;SDS011;24320;56.980;24.336;2022-10-16T01:44:25;19.60;;;10.70;;
28653;SDS011;24320;56.980;24.336;2022-10-16T01:46:58;19.30;;;10.10;;
28653;SDS011;24320;56.980;24.336;2022-10-16T01:49:31;22.40;;;11.20;;
28653;SDS011;24320;56.980;24.336;2022-10-16T01:52:05;25.13;;;10.88;;
28653;SDS011;24320;56.980;24.336;2022-10-16T01:54:37;23.90;;;11.63;;
28653;SDS011;24320;56.980;24.336;2022-10-16T01:57:10;21.02;;;11.80;;
28653;SDS011;24320;56.980;24.336;2022-10-16T01:59:43;21.13;;;11.65;;
28653;SDS011;24320;56.980;24.336;2022-10-16T02:02:17;20.42;;;11.05;;
28653;SDS011;24320;56.980;24.336;2022-10-16T02:04:49;23.30;;;11.80;;
28653;SDS011;24320;56.980;24.336;2022-10-16T02:07:28;20.38;;;11.43;;
28653;SDS011;24320;56.980;24.336;2022-10-16T02:09:59;22.08;;;11.15;;
28653;SDS011;24320;56.980;24.336;2022-10-16T02:12:33;20.08;;;11.43;;
28653;SDS011;24320;56.980;24.336;2022-10-16T02:15:07;23.30;;;12.23;;
28653;SDS011;24320;56.980;24.336;2022-10-16T02:17:37;25.50;;;11.85;;
28653;SDS011;24320;56.980;24.336;2022-10-16T02:20:08;24.35;;;12.20;;
28653;SDS011;24320;56.980;24.336;2022-10-16T02:22:45;22.23;;;11.98;;
28653;SDS011;24320;56.980;24.336;2022-10-16T02:25:35;22.20;;;12.32;;
28653;SDS011;24320;56.980;24.336;2022-10-16T02:28:14;20.98;;;12.35;;
28653;SDS011;24320;56.980;24.336;2022-10-16T02:31:03;25.20;;;12.10;;
28653;SDS011;24320;56.980;24.336;2022-10-16T02:33:37;26.30;;;12.90;;
28653;SDS011;24320;56.980;24.336;2022-10-16T02:36:10;24.90;;;13.77;;
28653;SDS011;24320;56.980;24.336;2022-10-16T02:38:40;24.85;;;12.60;;
28653;SDS011;24320;56.980;24.336;2022-10-16T02:41:09;22.33;;;12.10;;
28653;SDS011;24320;56.980;24.336;2022-10-16T02:43:39;20.65;;;11.32;;
28653;SDS011;24320;56.980;24.336;2022-10-16T02:46:09;22.67;;;12.50;;
28653;SDS011;24320;56.980;24.336;2022-10-16T02:48:39;23.45;;;13.00;;
28653;SDS011;24320;56.980;24.336;2022-10-16T02:51:09;28.88;;;13.40;;
28653;SDS011;24320;56.980;24.336;2022-10-16T02:53:40;24.85;;;11.82;;
28653;SDS011;24320;56.980;24.336;2022-10-16T02:56:10;26.02;;;12.73;;
28653;SDS011;24320;56.980;24.336;2022-10-16T02:58:40;28.85;;;13.35;;
28653;SDS011;24320;56.980;24.336;2022-10-16T03:01:10;23.80;;;12.77;;
28653;SDS011;24320;56.980;24.336;2022-10-16T03:03:41;30.60;;;13.60;;
28653;SDS011;24320;56.980;24.336;2022-10-16T03:06:11;27.42;;;14.18;;
28653;SDS011;24320;56.980;24.336;2022-10-16T03:08:40;27.85;;;14.55;;
28653;SDS011;24320;56.980;24.336;2022-10-16T03:11:10;26.40;;;13.20;;
28653;SDS011;24320;56.980;24.336;2022-10-16T03:13:40;26.60;;;13.52;;
28653;SDS011;24320;56.980;24.336;2022-10-16T03:16:10;25.17;;;13.55;;
28653;SDS011;24320;56.980;24.336;2022-10-16T03:18:40;27.05;;;12.93;;
28653;SDS011;24320;56.980;24.336;2022-10-16T03:21:10;26.55;;;14.05;;
28653;SDS011;24320;56.980;24.336;2022-10-16T03:23:40;25.60;;;14.05;;
28653;SDS011;24320;56.980;24.336;2022-10-16T03:26:09;30.63;;;13.82;;
28653;SDS011;24320;56.980;24.336;2022-10-16T03:28:39;30.20;;;14.55;;
28653;SDS011;24320;56.980;24.336;2022-10-16T03:31:09;28.88;;;15.15;;
28653;SDS011;24320;56.980;24.336;2022-10-16T03:33:38;30.08;;;14.63;;
28653;SDS011;24320;56.980;24.336;2022-10-16T03:36:08;30.95;;;16.13;;
28653;SDS011;24320;56.980;24.336;2022-10-16T03:38:38;29.58;;;15.00;;
28653;SDS011;24320;56.980;24.336;2022-10-16T03:41:07;29.05;;;14.35;;
28653;SDS011;24320;56.980;24.336;2022-10-16T03:43:36;32.42;;;14.82;;
28653;SDS011;24320;56.980;24.336;2022-10-16T03:46:06;33.17;;;15.27;;
28653;SDS011;24320;56.980;24.336;2022-10-16T03:48:35;32.25;;;16.27;;
28653;SDS011;24320;56.980;24.336;2022-10-16T03:51:03;30.70;;;15.48;;
28653;SDS011;24320;56.980;24.336;2022-10-16T03:53:33;29.65;;;14.82;;
28653;SDS011;24320;56.980;24.336;2022-10-16T03:56:01;29.52;;;15.15;;
28653;SDS011;24320;56.980;24.336;2022-10-16T03:58:31;36.15;;;15.48;;
28653;SDS011;24320;56.980;24.336;2022-10-16T04:01:01;30.77;;;15.25;;
28653;SDS011;24320;56.980;24.336;2022-10-16T04:03:31;30.88;;;15.55;;
28653;SDS011;24320;56.980;24.336;2022-10-16T04:06:00;28.33;;;15.40;;
28653;SDS011;24320;56.980;24.336;2022-10-16T04:08:29;33.42;;;15.75;;
28653;SDS011;24320;56.980;24.336;2022-10-16T04:11:02;28.20;;;15.52;;
28653;SDS011;24320;56.980;24.336;2022-10-16T04:13:32;33.45;;;15.13;;
28653;SDS011;24320;56.980;24.336;2022-10-16T04:15:59;32.28;;;16.02;;
28653;SDS011;24320;56.980;24.336;2022-10-16T04:18:26;34.28;;;15.57;;
28653;SDS011;24320;56.980;24.336;2022-10-16T04:20:53;27.48;;;14.50;;
28653;SDS011;24320;56.980;24.336;2022-10-16T04:23:20;30.92;;;15.63;;
28653;SDS011;24320;56.980;24.336;2022-10-16T04:25:49;27.27;;;15.60;;
28653;SDS011;24320;56.980;24.336;2022-10-16T04:28:16;26.67;;;14.63;;
28653;SDS011;24320;56.980;24.336;2022-10-16T04:30:43;29.52;;;15.40;;
28653;SDS011;24320;56.980;24.336;2022-10-16T04:33:10;33.00;;;15.88;;
28653;SDS011;24320;56.980;24.336;2022-10-16T04:35:39;32.10;;;15.88;;
28653;SDS011;24320;56.980;24.336;2022-10-16T04:38:05;31.08;;;15.02;;
28653;SDS011;24320;56.980;24.336;2022-10-16T04:40:32;29.50;;;15.98;;
28653;SDS011;24320;56.980;24.336;2022-10-16T04:43:02;29.92;;;15.40;;
28653;SDS011;24320;56.980;24.336;2022-10-16T04:45:30;33.85;;;16.33;;
28653;SDS011;24320;56.980;24.336;2022-10-16T04:47:58;29.02;;;14.85;;
28653;SDS011;24320;56.980;24.336;2022-10-16T04:50:25;31.50;;;16.27;;
28653;SDS011;24320;56.980;24.336;2022-10-16T04:52:52;31.85;;;16.52;;
28653;SDS011;24320;56.980;24.336;2022-10-16T04:55:19;33.67;;;16.50;;
28653;SDS011;24320;56.980;24.336;2022-10-16T04:57:46;35.30;;;16.63;;
28653;SDS011;24320;56.980;24.336;2022-10-16T05:00:13;32.35;;;15.55;;
28653;SDS011;24320;56.980;24.336;2022-10-16T05:02:40;35.03;;;16.27;;
28653;SDS011;24320;56.980;24.336;2022-10-16T05:05:07;29.27;;;15.57;;
28653;SDS011;24320;56.980;24.336;2022-10-16T05:07:34;39.20;;;16.52;;
28653;SDS011;24320;56.980;24.336;2022-10-16T05:10:01;35.70;;;17.52;;
28653;SDS011;24320;56.980;24.336;2022-10-16T05:12:28;37.05;;;16.92;;
28653;SDS011;24320;56.980;24.336;2022-10-16T05:14:55;35.88;;;17.58;;
28653;SDS011;24320;56.980;24.336;2022-10-16T05:17:25;39.20;;;18.13;;
28653;SDS011;24320;56.980;24.336;2022-10-16T05:19:53;37.35;;;18.42;;
28653;SDS011;24320;56.980;24.336;2022-10-16T05:22:20;41.45;;;17.40;;
28653;SDS011;24320;56.980;24.336;2022-10-16T05:24:47;35.67;;;17.85;;
28653;SDS011;24320;56.980;24.336;2022-10-16T05:27:14;37.13;;;18.50;;
28653;SDS011;24320;56.980;24.336;2022-10-16T05:29:45;38.00;;;18.33;;
28653;SDS011;24320;56.980;24.336;2022-10-16T05:32:14;47.72;;;20.25;;
28653;SDS011;24320;56.980;24.336;2022-10-16T05:34:42;45.38;;;19.08;;
28653;SDS011;24320;56.980;24.336;2022-10-16T05:37:09;54.47;;;21.02;;
28653;SDS011;24320;56.980;24.336;2022-10-16T05:39:38;47.45;;;18.70;;
28653;SDS011;24320;56.980;24.336;2022-10-16T05:42:05;47.33;;;21.17;;
28653;SDS011;24320;56.980;24.336;2022-10-16T05:44:32;44.97;;;20.67;;
28653;SDS011;24320;56.980;24.336;2022-10-16T05:47:04;43.15;;;18.95;;
28653;SDS011;24320;56.980;24.336;2022-10-16T05:49:31;49.45;;;21.08;;
28653;SDS011;24320;56.980;24.336;2022-10-16T05:52:01;42.38;;;19.75;;
28653;SDS011;24320;56.980;24.336;2022-10-16T05:54:28;45.28;;;20.25;;
28653;SDS011;24320;56.980;24.336;2022-10-16T05:56:55;49.13;;;21.45;;
28653;SDS011;24320;56.980;24.336;2022-10-16T05:59:22;42.28;;;19.35;;
28653;SDS011;24320;56.980;24.336;2022-10-16T06:01:49;48.10;;;20.95;;
28653;SDS011;24320;56.980;24.336;2022-10-16T06:04:16;44.13;;;21.40;;
28653;SDS011;24320;56.980;24.336;2022-10-16T06:06:43;47.83;;;21.65;;
28653;SDS011;24320;56.980;24.336;2022-10-16T06:09:10;45.00;;;20.48;;
28653;SDS011;24320;56.980;24.336;2022-10-16T06:11:37;43.78;;;20.30;;
28653;SDS011;24320;56.980;24.336;2022-10-16T06:14:04;47.22;;;19.65;;
28653;SDS011;24320;56.980;24.336;2022-10-16T06:19:11;46.45;;;20.20;;
28653;SDS011;24320;56.980;24.336;2022-10-16T06:21:38;48.53;;;19.63;;
28653;SDS011;24320;56.980;24.336;2022-10-16T06:24:05;45.75;;;20.73;;
28653;SDS011;24320;56.980;24.336;2022-10-16T06:26:32;41.58;;;19.67;;
28653;SDS011;24320;56.980;24.336;2022-10-16T06:28:59;46.22;;;20.23;;
28653;SDS011;24320;56.980;24.336;2022-10-16T06:31:27;43.90;;;20.08;;
28653;SDS011;24320;56.980;24.336;2022-10-16T06:33:57;42.20;;;18.88;;
28653;SDS011;24320;56.980;24.336;2022-10-16T06:36:25;40.45;;;19.52;;
28653;SDS011;24320;56.980;24.336;2022-10-16T06:38:53;40.58;;;19.45;;
28653;SDS011;24320;56.980;24.336;2022-10-16T06:41:20;46.55;;;19.23;;
28653;SDS011;24320;56.980;24.336;2022-10-16T06:43:48;41.78;;;20.27;;
28653;SDS011;24320;56.980;24.336;2022-10-16T06:46:16;36.42;;;18.80;;
28653;SDS011;24320;56.980;24.336;2022-10-16T06:48:46;42.67;;;20.52;;
28653;SDS011;24320;56.980;24.336;2022-10-16T06:51:14;40.85;;;19.83;;
28653;SDS011;24320;56.980;24.336;2022-10-16T06:53:52;47.88;;;21.25;;
28653;SDS011;24320;56.980;24.336;2022-10-16T06:56:30;43.28;;;22.00;;
28653;SDS011;24320;56.980;24.336;2022-10-16T06:58:58;45.13;;;19.08;;
28653;SDS011;24320;56.980;24.336;2022-10-16T07:01:26;44.05;;;20.05;;
28653;SDS011;24320;56.980;24.336;2022-10-16T07:03:53;46.40;;;21.10;;
28653;SDS011;24320;56.980;24.336;2022-10-16T07:06:21;45.90;;;19.13;;
28653;SDS011;24320;56.980;24.336;2022-10-16T07:08:49;41.17;;;20.30;;
28653;SDS011;24320;56.980;24.336;2022-10-16T07:11:18;43.05;;;20.23;;
28653;SDS011;24320;56.980;24.336;2022-10-16T07:13:47;42.05;;;19.85;;
28653;SDS011;24320;56.980;24.336;2022-10-16T07:16:22;41.25;;;20.30;;
28653;SDS011;24320;56.980;24.336;2022-10-16T07:18:51;45.57;;;20.30;;
28653;SDS011;24320;56.980;24.336;2022-10-16T07:21:25;41.30;;;20.30;;
28653;SDS011;24320;56.980;24.336;2022-10-16T07:23:59;43.03;;;19.80;;
28653;SDS011;24320;56.980;24.336;2022-10-16T07:26:28;40.75;;;20.08;;
28653;SDS011;24320;56.980;24.336;2022-10-16T07:28:57;40.08;;;20.20;;
28653;SDS011;24320;56.980;24.336;2022-10-16T07:31:24;42.90;;;19.88;;
28653;SDS011;24320;56.980;24.336;2022-10-16T07:33:53;46.13;;;20.67;;
28653;SDS011;24320;56.980;24.336;2022-10-16T07:36:21;41.03;;;19.77;;
28653;SDS011;24320;56.980;24.336;2022-10-16T07:38:48;42.08;;;19.77;;
28653;SDS011;24320;56.980;24.336;2022-10-16T07:41:20;41.58;;;18.85;;
28653;SDS011;24320;56.980;24.336;2022-10-16T07:43:48;41.67;;;20.05;;
28653;SDS011;24320;56.980;24.336;2022-10-16T07:46:16;42.15;;;20.10;;
28653;SDS011;24320;56.980;24.336;2022-10-16T07:48:44;43.10;;;20.25;;
28653;SDS011;24320;56.980;24.336;2022-10-16T07:51:15;41.30;;;20.83;;
28653;SDS011;24320;56.980;24.336;2022-10-16T07:53:43;41.75;;;20.15;;
28653;SDS011;24320;56.980;24.336;2022-10-16T07:56:10;44.75;;;20.83;;
28653;SDS011;24320;56.980;24.336;2022-10-16T07:58:38;41.72;;;20.15;;
28653;SDS011;24320;56.980;24.336;2022-10-16T08:01:06;39.78;;;19.90;;
28653;SDS011;24320;56.980;24.336;2022-10-16T08:03:35;43.15;;;20.35;;
28653;SDS011;24320;56.980;24.336;2022-10-16T08:06:03;38.38;;;19.50;;
28653;SDS011;24320;56.980;24.336;2022-10-16T08:08:30;43.05;;;20.27;;
28653;SDS011;24320;56.980;24.336;2022-10-16T08:10:57;41.55;;;19.67;;
28653;SDS011;24320;56.980;24.336;2022-10-16T08:13:24;45.35;;;20.55;;
28653;SDS011;24320;56.980;24.336;2022-10-16T08:15:53;38.58;;;19.98;;
28653;SDS011;24320;56.980;24.336;2022-10-16T08:18:21;38.40;;;19.48;;
28653;SDS011;24320;56.980;24.336;2022-10-16T08:20:54;42.67;;;20.33;;
28653;SDS011;24320;56.980;24.336;2022-10-16T08:23:22;45.45;;;19.77;;
28653;SDS011;24320;56.980;24.336;2022-10-16T08:25:49;40.95;;;19.98;;
28653;SDS011;24320;56.980;24.336;2022-10-16T08:28:16;42.25;;;20.33;;
28653;SDS011;24320;56.980;24.336;2022-10-16T08:30:43;44.15;;;21.00;;
28653;SDS011;24320;56.980;24.336;2022-10-16T08:33:12;44.50;;;20.55;;
28653;SDS011;24320;56.980;24.336;2022-10-16T08:35:49;39.20;;;20.55;;
28653;SDS011;24320;56.980;24.336;2022-10-16T08:38:21;41.72;;;20.20;;
28653;SDS011;24320;56.980;24.336;2022-10-16T08:40:51;48.50;;;20.83;;
28653;SDS011;24320;56.980;24.336;2022-10-16T08:43:28;42.60;;;20.50;;
28653;SDS011;24320;56.980;24.336;2022-10-16T08:49:02;44.13;;;21.33;;
28653;SDS011;24320;56.980;24.336;2022-10-16T08:51:31;41.00;;;20.23;;
28653;SDS011;24320;56.980;24.336;2022-10-16T08:54:05;45.75;;;20.42;;
28653;SDS011;24320;56.980;24.336;2022-10-16T08:56:48;38.10;;;18.90;;
28653;SDS011;24320;56.980;24.336;2022-10-16T08:59:15;39.53;;;20.55;;
28653;SDS011;24320;56.980;24.336;2022-10-16T09:01:47;40.53;;;20.15;;
28653;SDS011;24320;56.980;24.336;2022-10-16T09:21:13;41.83;;;20.10;;
28653;SDS011;24320;56.980;24.336;2022-10-16T09:23:44;40.47;;;20.63;;
28653;SDS011;24320;56.980;24.336;2022-10-16T09:26:12;42.58;;;20.15;;
28653;SDS011;24320;56.980;24.336;2022-10-16T09:28:40;46.38;;;20.48;;
28653;SDS011;24320;56.980;24.336;2022-10-16T09:31:13;40.00;;;19.38;;
28653;SDS011;24320;56.980;24.336;2022-10-16T09:33:43;39.47;;;20.45;;
28653;SDS011;24320;56.980;24.336;2022-10-16T09:36:14;41.83;;;20.73;;
28653;SDS011;24320;56.980;24.336;2022-10-16T09:38:41;38.55;;;19.70;;
28653;SDS011;24320;56.980;24.336;2022-10-16T09:46:24;45.92;;;20.85;;
28653;SDS011;24320;56.980;24.336;2022-10-16T09:48:51;42.67;;;20.38;;
28653;SDS011;24320;56.980;24.336;2022-10-16T09:54:00;41.55;;;20.75;;
28653;SDS011;24320;56.980;24.336;2022-10-16T09:56:32;39.45;;;19.55;;
28653;SDS011;24320;56.980;24.336;2022-10-16T09:59:08;44.67;;;22.00;;
28653;SDS011;24320;56.980;24.336;2022-10-16T10:04:07;45.53;;;21.45;;
28653;SDS011;24320;56.980;24.336;2022-10-16T10:06:36;42.20;;;21.02;;
28653;SDS011;24320;56.980;24.336;2022-10-16T10:09:19;48.20;;;22.92;;
28653;SDS011;24320;56.980;24.336;2022-10-16T10:22:42;42.15;;;20.23;;
28653;SDS011;24320;56.980;24.336;2022-10-16T10:30:56;46.33;;;20.42;;
28653;SDS011;24320;56.980;24.336;2022-10-16T10:50:14;36.95;;;18.85;;
28653;SDS011;24320;56.980;24.336;2022-10-16T10:52:53;38.30;;;19.15;;
28653;SDS011;24320;56.980;24.336;2022-10-16T11:01:10;37.85;;;20.58;;
28653;SDS011;24320;56.980;24.336;2022-10-16T11:06:50;40.72;;;19.10;;
28653;SDS011;24320;56.980;24.336;2022-10-16T11:09:23;37.95;;;18.60;;
28653;SDS011;24320;56.980;24.336;2022-10-16T11:11:56;38.70;;;19.33;;
28653;SDS011;24320;56.980;24.336;2022-10-16T11:14:35;45.28;;;19.83;;
28653;SDS011;24320;56.980;24.336;2022-10-16T11:17:23;40.67;;;19.63;;
28653;SDS011;24320;56.980;24.336;2022-10-16T11:19:59;39.50;;;19.55;;
28653;SDS011;24320;56.980;24.336;2022-10-16T11:22:38;38.22;;;18.17;;
28653;SDS011;24320;56.980;24.336;2022-10-16T11:25:13;39.13;;;18.77;;
28653;SDS011;24320;56.980;24.336;2022-10-16T11:45:00;38.92;;;19.15;;
28653;SDS011;24320;56.980;24.336;2022-10-16T11:47:23;38.00;;;19.20;;
28653;SDS011;24320;56.980;24.336;2022-10-16T11:55:47;37.78;;;19.38;;
28653;SDS011;24320;56.980;24.336;2022-10-16T12:09:28;39.30;;;19.08;;
28653;SDS011;24320;56.980;24.336;2022-10-16T12:11:57;41.40;;;19.50;;
28653;SDS011;24320;56.980;24.336;2022-10-16T12:17:36;37.92;;;19.08;;
28653;SDS011;24320;56.980;24.336;2022-10-16T12:23:02;39.25;;;17.77;;
28653;SDS011;24320;56.980;24.336;2022-10-16T12:25:35;33.63;;;17.30;;
28653;SDS011;24320;56.980;24.336;2022-10-16T12:28:06;34.17;;;17.50;;
28653;SDS011;24320;56.980;24.336;2022-10-16T12:30:54;33.97;;;17.73;;
28653;SDS011;24320;56.980;24.336;2022-10-16T12:36:00;35.95;;;17.77;;
28653;SDS011;24320;56.980;24.336;2022-10-16T12:38:36;33.97;;;17.60;;
28653;SDS011;24320;56.980;24.336;2022-10-16T12:41:25;34.38;;;16.67;;
28653;SDS011;24320;56.980;24.336;2022-10-16T12:43:57;39.00;;;17.75;;
28653;SDS011;24320;56.980;24.336;2022-10-16T12:51:42;34.30;;;17.50;;
28653;SDS011;24320;56.980;24.336;2022-10-16T13:00:04;33.53;;;17.00;;
28653;SDS011;24320;56.980;24.336;2022-10-16T13:02:57;34.95;;;16.42;;
28653;SDS011;24320;56.980;24.336;2022-10-16T13:08:50;37.42;;;16.52;;
28653;SDS011;24320;56.980;24.336;2022-10-16T13:25:18;29.73;;;15.15;;
28653;SDS011;24320;56.980;24.336;2022-10-16T13:27:54;32.90;;;16.52;;
28653;SDS011;24320;56.980;24.336;2022-10-16T13:30:27;34.03;;;16.00;;
28653;SDS011;24320;56.980;24.336;2022-10-16T13:33:04;30.90;;;15.88;;
28653;SDS011;24320;56.980;24.336;2022-10-16T13:35:53;32.97;;;15.95;;
28653;SDS011;24320;56.980;24.336;2022-10-16T13:38:22;30.55;;;15.15;;
28653;SDS011;24320;56.980;24.336;2022-10-16T13:41:36;29.35;;;15.65;;
28653;SDS011;24320;56.980;24.336;2022-10-16T13:46:14;32.70;;;15.65;;
28653;SDS011;24320;56.980;24.336;2022-10-16T13:51:37;34.90;;;16.15;;
28653;SDS011;24320;56.980;24.336;2022-10-16T13:54:04;32.92;;;16.30;;
28653;SDS011;24320;56.980;24.336;2022-10-16T13:56:32;35.50;;;17.05;;
28653;SDS011;24320;56.980;24.336;2022-10-16T13:59:03;33.55;;;16.77;;
28653;SDS011;24320;56.980;24.336;2022-10-16T14:01:40;34.15;;;16.77;;
28653;SDS011;24320;56.980;24.336;2022-10-16T14:04:09;31.02;;;16.80;;
28653;SDS011;24320;56.980;24.336;2022-10-16T14:06:42;34.55;;;16.48;;
28653;SDS011;24320;56.980;24.336;2022-10-16T14:09:30;31.90;;;16.45;;
28653;SDS011;24320;56.980;24.336;2022-10-16T14:11:58;34.10;;;17.42;;
28653;SDS011;24320;56.980;24.336;2022-10-16T14:14:35;33.35;;;16.83;;
28653;SDS011;24320;56.980;24.336;2022-10-16T14:17:15;31.52;;;17.00;;
28653;SDS011;24320;56.980;24.336;2022-10-16T14:19:48;35.50;;;17.75;;
28653;SDS011;24320;56.980;24.336;2022-10-16T14:22:27;37.67;;;17.58;;
28653;SDS011;24320;56.980;24.336;2022-10-16T14:24:55;38.88;;;18.25;;
28653;SDS011;24320;56.980;24.336;2022-10-16T14:32:40;30.92;;;16.35;;
28653;SDS011;24320;56.980;24.336;2022-10-16T14:35:22;36.25;;;17.38;;
28653;SDS011;24320;56.980;24.336;2022-10-16T14:37:54;31.75;;;16.83;;
28653;SDS011;24320;56.980;24.336;2022-10-16T14:40:24;33.20;;;17.48;;
28653;SDS011;24320;56.980;24.336;2022-10-16T14:42:54;37.38;;;17.95;;
28653;SDS011;24320;56.980;24.336;2022-10-16T14:45:22;36.03;;;19.08;;
28653;SDS011;24320;56.980;24.336;2022-10-16T14:47:57;33.70;;;18.30;;
28653;SDS011;24320;56.980;24.336;2022-10-16T14:50:45;32.28;;;17.67;;
28653;SDS011;24320;56.980;24.336;2022-10-16T14:53:12;39.67;;;19.15;;
28653;SDS011;24320;56.980;24.336;2022-10-16T14:55:39;36.70;;;19.23;;
28653;SDS011;24320;56.980;24.336;2022-10-16T14:58:10;35.00;;;19.08;;
28653;SDS011;24320;56.980;24.336;2022-10-16T15:00:44;34.97;;;18.02;;
28653;SDS011;24320;56.980;24.336;2022-10-16T15:03:11;35.78;;;18.48;;
28653;SDS011;24320;56.980;24.336;2022-10-16T15:05:38;36.85;;;19.30;;
28653;SDS011;24320;56.980;24.336;2022-10-16T15:08:05;36.75;;;18.95;;
28653;SDS011;24320;56.980;24.336;2022-10-16T15:10:33;38.95;;;19.23;;
28653;SDS011;24320;56.980;24.336;2022-10-16T15:13:05;36.42;;;19.95;;
28653;SDS011;24320;56.980;24.336;2022-10-16T15:15:33;37.90;;;19.42;;
28653;SDS011;24320;56.980;24.336;2022-10-16T15:18:06;39.60;;;19.67;;
28653;SDS011;24320;56.980;24.336;2022-10-16T15:20:34;38.97;;;20.80;;
28653;SDS011;24320;56.980;24.336;2022-10-16T15:23:03;38.97;;;21.05;;
28653;SDS011;24320;56.980;24.336;2022-10-16T15:28:20;41.85;;;20.92;;
28653;SDS011;24320;56.980;24.336;2022-10-16T15:30:49;42.65;;;20.02;;
28653;SDS011;24320;56.980;24.336;2022-10-16T15:33:19;41.83;;;21.60;;
28653;SDS011;24320;56.980;24.336;2022-10-16T15:35:49;47.95;;;23.25;;
28653;SDS011;24320;56.980;24.336;2022-10-16T15:38:18;47.72;;;24.13;;
28653;SDS011;24320;56.980;24.336;2022-10-16T15:40:47;43.88;;;23.02;;
28653;SDS011;24320;56.980;24.336;2022-10-16T15:43:15;45.83;;;22.48;;
28653;SDS011;24320;56.980;24.336;2022-10-16T15:45:42;40.72;;;21.25;;
28653;SDS011;24320;56.980;24.336;2022-10-16T15:48:12;44.17;;;23.30;;
28653;SDS011;24320;56.980;24.336;2022-10-16T15:50:40;40.17;;;22.15;;
28653;SDS011;24320;56.980;24.336;2022-10-16T15:53:09;41.10;;;20.77;;
28653;SDS011;24320;56.980;24.336;2022-10-16T15:55:36;38.88;;;20.23;;
28653;SDS011;24320;56.980;24.336;2022-10-16T15:58:04;45.17;;;19.65;;
28653;SDS011;24320;56.980;24.336;2022-10-16T16:00:31;41.67;;;20.55;;
28653;SDS011;24320;56.980;24.336;2022-10-16T16:02:58;39.97;;;20.75;;
28653;SDS011;24320;56.980;24.336;2022-10-16T16:05:25;40.40;;;20.10;;
28653;SDS011;24320;56.980;24.336;2022-10-16T16:07:53;38.78;;;19.40;;
28653;SDS011;24320;56.980;24.336;2022-10-16T16:10:20;40.05;;;21.52;;
28653;SDS011;24320;56.980;24.336;2022-10-16T16:12:48;37.78;;;19.05;;
28653;SDS011;24320;56.980;24.336;2022-10-16T16:15:21;35.40;;;18.48;;
28653;SDS011;24320;56.980;24.336;2022-10-16T16:17:49;36.63;;;18.60;;
28653;SDS011;24320;56.980;24.336;2022-10-16T16:20:16;32.15;;;17.77;;
28653;SDS011;24320;56.980;24.336;2022-10-16T16:22:43;33.13;;;18.05;;
28653;SDS011;24320;56.980;24.336;2022-10-16T16:25:10;35.75;;;17.58;;
28653;SDS011;24320;56.980;24.336;2022-10-16T16:27:37;30.42;;;16.50;;
28653;SDS011;24320;56.980;24.336;2022-10-16T16:30:09;32.33;;;18.70;;
28653;SDS011;24320;56.980;24.336;2022-10-16T16:32:44;34.80;;;18.45;;
28653;SDS011;24320;56.980;24.336;2022-10-16T16:35:11;33.67;;;16.73;;
28653;SDS011;24320;56.980;24.336;2022-10-16T16:37:38;33.42;;;17.88;;
28653;SDS011;24320;56.980;24.336;2022-10-16T16:40:05;33.92;;;17.92;;
28653;SDS011;24320;56.980;24.336;2022-10-16T16:42:32;31.73;;;18.42;;
28653;SDS011;24320;56.980;24.336;2022-10-16T16:45:08;48.03;;;25.33;;
28653;SDS011;24320;56.980;24.336;2022-10-16T16:47:35;41.38;;;24.25;;
28653;SDS011;24320;56.980;24.336;2022-10-16T16:50:04;49.67;;;27.65;;
28653;SDS011;24320;56.980;24.336;2022-10-16T16:52:34;36.28;;;19.27;;
28653;SDS011;24320;56.980;24.336;2022-10-16T16:55:01;38.25;;;20.95;;
28653;SDS011;24320;56.980;24.336;2022-10-16T16:57:28;37.50;;;18.92;;
28653;SDS011;24320;56.980;24.336;2022-10-16T16:59:56;34.67;;;19.45;;
28653;SDS011;24320;56.980;24.336;2022-10-16T17:02:23;41.67;;;20.90;;
28653;SDS011;24320;56.980;24.336;2022-10-16T17:04:50;41.42;;;20.92;;
28653;SDS011;24320;56.980;24.336;2022-10-16T17:07:17;35.58;;;17.92;;
28653;SDS011;24320;56.980;24.336;2022-10-16T17:09:49;34.85;;;18.85;;
28653;SDS011;24320;56.980;24.336;2022-10-16T17:12:16;40.08;;;19.27;;
28653;SDS011;24320;56.980;24.336;2022-10-16T17:14:43;35.60;;;19.50;;
28653;SDS011;24320;56.980;24.336;2022-10-16T17:17:10;34.88;;;18.27;;
28653;SDS011;24320;56.980;24.336;2022-10-16T17:19:37;34.20;;;20.08;;
28653;SDS011;24320;56.980;24.336;2022-10-16T17:22:04;29.63;;;17.20;;